sensor_id;sensor_type;location;lat;lon;timestamp;P1;durP1;ratioP1;P2;durP2;ratioP2
19854;SDS011;10088;47.946;2.532;2023-08-01T00:01:32;6.03;;;3.60;;
19854;SDS011;10088;47.946;2.532;2023-08-01T00:03:57;6.80;;;4.30;;
19854;SDS011;10088;47.946;2.532;2023-08-01T00:06:22;5.13;;;3.80;;
19854;SDS011;10088;47.946;2.532;2023-08-01T00:08:49;8.63;;;3.83;;
19854;SDS011;10088;47.946;2.532;2023-08-01T00:11:14;7.60;;;4.07;;
19854;SDS011;10088;47.946;2.532;2023-08-01T00:13:41;6.87;;;4.37;;
19854;SDS011;10088;47.946;2.532;2023-08-01T00:16:06;8.33;;;4.57;;
19854;SDS011;10088;47.946;2.532;2023-08-01T00:18:31;8.43;;;4.80;;
19854;SDS011;10088;47.946;2.532;2023-08-01T00:20:57;10.20;;;4.47;;
19854;SDS011;10088;47.946;2.532;2023-08-01T00:23:23;9.00;;;4.03;;
19854;SDS011;10088;47.946;2.532;2023-08-01T00:25:49;8.83;;;4.50;;
19854;SDS011;10088;47.946;2.532;2023-08-01T00:28:17;5.37;;;3.67;;
19854;SDS011;10088;47.946;2.532;2023-08-01T00:30:42;9.77;;;4.50;;
19854;SDS011;10088;47.946;2.532;2023-08-01T00:33:07;8.70;;;5.07;;
19854;SDS011;10088;47.946;2.532;2023-08-01T00:35:32;7.33;;;4.50;;
19854;SDS011;10088;47.946;2.532;2023-08-01T00:37:58;6.30;;;4.13;;
19854;SDS011;10088;47.946;2.532;2023-08-01T00:40:23;6.00;;;4.30;;
19854;SDS011;10088;47.946;2.532;2023-08-01T00:42:49;9.87;;;4.50;;
19854;SDS011;10088;47.946;2.532;2023-08-01T00:45:20;7.60;;;4.03;;
19854;SDS011;10088;47.946;2.532;2023-08-01T00:47:45;9.60;;;5.20;;
19854;SDS011;10088;47.946;2.532;2023-08-01T00:50:11;5.90;;;4.03;;
19854;SDS011;10088;47.946;2.532;2023-08-01T00:52:36;8.37;;;4.03;;
19854;SDS011;10088;47.946;2.532;2023-08-01T00:55:01;8.17;;;4.23;;
19854;SDS011;10088;47.946;2.532;2023-08-01T00:57:27;9.07;;;4.90;;
19854;SDS011;10088;47.946;2.532;2023-08-01T00:59:52;7.30;;;4.03;;
19854;SDS011;10088;47.946;2.532;2023-08-01T01:02:18;9.13;;;4.40;;
19854;SDS011;10088;47.946;2.532;2023-08-01T01:04:43;9.17;;;5.00;;
19854;SDS011;10088;47.946;2.532;2023-08-01T01:07:08;7.37;;;4.80;;
19854;SDS011;10088;47.946;2.532;2023-08-01T01:09:34;10.03;;;4.37;;
19854;SDS011;10088;47.946;2.532;2023-08-01T01:11:59;11.30;;;5.17;;
19854;SDS011;10088;47.946;2.532;2023-08-01T01:14:28;7.37;;;4.87;;
19854;SDS011;10088;47.946;2.532;2023-08-01T01:16:53;9.67;;;5.40;;
19854;SDS011;10088;47.946;2.532;2023-08-01T01:19:18;6.57;;;4.50;;
19854;SDS011;10088;47.946;2.532;2023-08-01T01:21:43;12.27;;;5.70;;
19854;SDS011;10088;47.946;2.532;2023-08-01T01:24:09;8.27;;;5.30;;
19854;SDS011;10088;47.946;2.532;2023-08-01T01:26:35;10.00;;;5.40;;
19854;SDS011;10088;47.946;2.532;2023-08-01T01:29:02;9.50;;;5.50;;
19854;SDS011;10088;47.946;2.532;2023-08-01T01:31:27;9.57;;;4.90;;
19854;SDS011;10088;47.946;2.532;2023-08-01T01:33:53;7.43;;;4.50;;
19854;SDS011;10088;47.946;2.532;2023-08-01T01:36:19;8.27;;;4.53;;
19854;SDS011;10088;47.946;2.532;2023-08-01T01:38:44;7.77;;;5.03;;
19854;SDS011;10088;47.946;2.532;2023-08-01T01:41:09;6.40;;;3.93;;
19854;SDS011;10088;47.946;2.532;2023-08-01T01:43:36;8.43;;;4.20;;
19854;SDS011;10088;47.946;2.532;2023-08-01T01:46:02;6.70;;;3.67;;
19854;SDS011;10088;47.946;2.532;2023-08-01T01:48:28;5.57;;;3.27;;
19854;SDS011;10088;47.946;2.532;2023-08-01T01:50:53;4.63;;;3.37;;
19854;SDS011;10088;47.946;2.532;2023-08-01T01:53:18;6.33;;;3.30;;
19854;SDS011;10088;47.946;2.532;2023-08-01T01:55:43;5.90;;;3.40;;
19854;SDS011;10088;47.946;2.532;2023-08-01T01:58:08;4.53;;;3.30;;
19854;SDS011;10088;47.946;2.532;2023-08-01T02:00:34;5.57;;;2.70;;
19854;SDS011;10088;47.946;2.532;2023-08-01T02:02:59;5.83;;;3.10;;
19854;SDS011;10088;47.946;2.532;2023-08-01T02:05:25;4.63;;;2.33;;
19854;SDS011;10088;47.946;2.532;2023-08-01T02:07:50;4.77;;;3.00;;
19854;SDS011;10088;47.946;2.532;2023-08-01T02:10:15;3.73;;;2.40;;
19854;SDS011;10088;47.946;2.532;2023-08-01T02:12:41;3.50;;;2.30;;
19854;SDS011;10088;47.946;2.532;2023-08-01T02:15:06;4.20;;;2.57;;
19854;SDS011;10088;47.946;2.532;2023-08-01T02:17:31;4.17;;;2.30;;
19854;SDS011;10088;47.946;2.532;2023-08-01T02:19:57;4.67;;;2.57;;
19854;SDS011;10088;47.946;2.532;2023-08-01T02:22:22;3.10;;;2.17;;
19854;SDS011;10088;47.946;2.532;2023-08-01T02:24:48;2.60;;;2.13;;
19854;SDS011;10088;47.946;2.532;2023-08-01T02:27:13;3.37;;;2.10;;
19854;SDS011;10088;47.946;2.532;2023-08-01T02:29:38;3.63;;;2.20;;
19854;SDS011;10088;47.946;2.532;2023-08-01T02:32:04;3.63;;;2.10;;
19854;SDS011;10088;47.946;2.532;2023-08-01T02:34:29;3.30;;;2.17;;
19854;SDS011;10088;47.946;2.532;2023-08-01T02:36:54;4.67;;;2.13;;
19854;SDS011;10088;47.946;2.532;2023-08-01T02:39:19;4.70;;;2.17;;
19854;SDS011;10088;47.946;2.532;2023-08-01T02:41:45;3.93;;;2.07;;
19854;SDS011;10088;47.946;2.532;2023-08-01T02:44:10;4.27;;;2.00;;
19854;SDS011;10088;47.946;2.532;2023-08-01T02:46:35;3.30;;;1.93;;
19854;SDS011;10088;47.946;2.532;2023-08-01T02:49:00;3.20;;;1.90;;
19854;SDS011;10088;47.946;2.532;2023-08-01T02:51:26;4.83;;;1.93;;
19854;SDS011;10088;47.946;2.532;2023-08-01T02:53:51;3.00;;;1.70;;
19854;SDS011;10088;47.946;2.532;2023-08-01T02:56:16;1.93;;;1.83;;
19854;SDS011;10088;47.946;2.532;2023-08-01T02:58:41;2.77;;;1.63;;
19854;SDS011;10088;47.946;2.532;2023-08-01T03:01:07;1.63;;;1.47;;
19854;SDS011;10088;47.946;2.532;2023-08-01T03:03:34;1.60;;;1.43;;
19854;SDS011;10088;47.946;2.532;2023-08-01T03:06:01;3.67;;;1.70;;
19854;SDS011;10088;47.946;2.532;2023-08-01T03:08:26;2.60;;;1.73;;
19854;SDS011;10088;47.946;2.532;2023-08-01T03:10:53;1.53;;;1.30;;
19854;SDS011;10088;47.946;2.532;2023-08-01T03:13:18;3.30;;;1.30;;
19854;SDS011;10088;47.946;2.532;2023-08-01T03:15:43;1.47;;;1.27;;
19854;SDS011;10088;47.946;2.532;2023-08-01T03:18:09;2.03;;;1.40;;
19854;SDS011;10088;47.946;2.532;2023-08-01T03:20:34;1.57;;;1.10;;
19854;SDS011;10088;47.946;2.532;2023-08-01T03:22:59;2.27;;;1.30;;
19854;SDS011;10088;47.946;2.532;2023-08-01T03:25:24;1.53;;;1.27;;
19854;SDS011;10088;47.946;2.532;2023-08-01T03:27:50;1.83;;;1.30;;
19854;SDS011;10088;47.946;2.532;2023-08-01T03:30:15;1.30;;;1.20;;
19854;SDS011;10088;47.946;2.532;2023-08-01T03:32:40;1.80;;;1.07;;
19854;SDS011;10088;47.946;2.532;2023-08-01T03:35:06;1.63;;;1.33;;
19854;SDS011;10088;47.946;2.532;2023-08-01T03:37:32;1.53;;;0.90;;
19854;SDS011;10088;47.946;2.532;2023-08-01T03:39:57;1.70;;;1.10;;
19854;SDS011;10088;47.946;2.532;2023-08-01T03:42:22;1.30;;;1.20;;
19854;SDS011;10088;47.946;2.532;2023-08-01T03:44:48;3.37;;;1.30;;
19854;SDS011;10088;47.946;2.532;2023-08-01T03:47:13;3.03;;;1.40;;
19854;SDS011;10088;47.946;2.532;2023-08-01T03:49:38;2.00;;;1.10;;
19854;SDS011;10088;47.946;2.532;2023-08-01T03:52:04;2.40;;;1.30;;
19854;SDS011;10088;47.946;2.532;2023-08-01T03:54:29;1.20;;;1.03;;
19854;SDS011;10088;47.946;2.532;2023-08-01T03:56:55;2.30;;;1.13;;
19854;SDS011;10088;47.946;2.532;2023-08-01T03:59:20;4.10;;;1.50;;
19854;SDS011;10088;47.946;2.532;2023-08-01T04:01:45;1.47;;;1.10;;
19854;SDS011;10088;47.946;2.532;2023-08-01T04:04:10;1.57;;;1.20;;
19854;SDS011;10088;47.946;2.532;2023-08-01T04:06:36;1.53;;;0.77;;
19854;SDS011;10088;47.946;2.532;2023-08-01T04:09:01;2.63;;;1.27;;
19854;SDS011;10088;47.946;2.532;2023-08-01T04:11:27;1.43;;;0.80;;
19854;SDS011;10088;47.946;2.532;2023-08-01T04:13:52;4.67;;;1.20;;
19854;SDS011;10088;47.946;2.532;2023-08-01T04:16:18;1.93;;;1.13;;
19854;SDS011;10088;47.946;2.532;2023-08-01T04:18:43;1.30;;;0.90;;
19854;SDS011;10088;47.946;2.532;2023-08-01T04:21:08;1.17;;;1.00;;
19854;SDS011;10088;47.946;2.532;2023-08-01T04:23:33;6.83;;;1.57;;
19854;SDS011;10088;47.946;2.532;2023-08-01T04:25:59;10.13;;;1.87;;
19854;SDS011;10088;47.946;2.532;2023-08-01T04:28:24;9.07;;;1.30;;
19854;SDS011;10088;47.946;2.532;2023-08-01T04:30:50;3.67;;;1.03;;
19854;SDS011;10088;47.946;2.532;2023-08-01T04:33:15;0.77;;;0.60;;
19854;SDS011;10088;47.946;2.532;2023-08-01T04:35:41;0.87;;;0.60;;
19854;SDS011;10088;47.946;2.532;2023-08-01T04:38:06;1.07;;;0.70;;
19854;SDS011;10088;47.946;2.532;2023-08-01T04:40:33;1.87;;;0.70;;
19854;SDS011;10088;47.946;2.532;2023-08-01T04:42:59;0.80;;;0.47;;
19854;SDS011;10088;47.946;2.532;2023-08-01T04:45:24;1.30;;;0.60;;
19854;SDS011;10088;47.946;2.532;2023-08-01T04:47:49;0.90;;;0.57;;
19854;SDS011;10088;47.946;2.532;2023-08-01T04:50:14;0.60;;;0.60;;
19854;SDS011;10088;47.946;2.532;2023-08-01T04:52:39;0.57;;;0.50;;
19854;SDS011;10088;47.946;2.532;2023-08-01T04:55:05;0.73;;;0.50;;
19854;SDS011;10088;47.946;2.532;2023-08-01T04:57:30;2.10;;;0.60;;
19854;SDS011;10088;47.946;2.532;2023-08-01T04:59:55;0.60;;;0.50;;
19854;SDS011;10088;47.946;2.532;2023-08-01T05:02:21;2.23;;;0.70;;
19854;SDS011;10088;47.946;2.532;2023-08-01T05:04:46;1.53;;;1.00;;
19854;SDS011;10088;47.946;2.532;2023-08-01T05:07:11;3.27;;;0.90;;
19854;SDS011;10088;47.946;2.532;2023-08-01T05:09:36;1.67;;;0.73;;
19854;SDS011;10088;47.946;2.532;2023-08-01T05:12:02;1.00;;;0.50;;
19854;SDS011;10088;47.946;2.532;2023-08-01T05:14:27;2.77;;;0.70;;
19854;SDS011;10088;47.946;2.532;2023-08-01T05:16:52;1.13;;;0.67;;
19854;SDS011;10088;47.946;2.532;2023-08-01T05:19:17;1.80;;;0.57;;
19854;SDS011;10088;47.946;2.532;2023-08-01T05:21:43;3.37;;;0.80;;
19854;SDS011;10088;47.946;2.532;2023-08-01T05:24:08;5.13;;;0.90;;
19854;SDS011;10088;47.946;2.532;2023-08-01T05:26:33;3.80;;;0.60;;
19854;SDS011;10088;47.946;2.532;2023-08-01T05:28:58;2.03;;;0.60;;
19854;SDS011;10088;47.946;2.532;2023-08-01T05:31:24;1.57;;;0.80;;
19854;SDS011;10088;47.946;2.532;2023-08-01T05:33:49;0.93;;;0.60;;
19854;SDS011;10088;47.946;2.532;2023-08-01T05:36:14;1.83;;;0.80;;
19854;SDS011;10088;47.946;2.532;2023-08-01T05:38:39;1.63;;;0.60;;
19854;SDS011;10088;47.946;2.532;2023-08-01T05:41:05;1.90;;;0.70;;
19854;SDS011;10088;47.946;2.532;2023-08-01T05:43:31;1.27;;;0.80;;
19854;SDS011;10088;47.946;2.532;2023-08-01T05:45:56;1.13;;;1.03;;
19854;SDS011;10088;47.946;2.532;2023-08-01T05:48:22;2.77;;;0.80;;
19854;SDS011;10088;47.946;2.532;2023-08-01T05:50:47;2.10;;;0.83;;
19854;SDS011;10088;47.946;2.532;2023-08-01T05:53:13;1.37;;;0.80;;
19854;SDS011;10088;47.946;2.532;2023-08-01T05:55:38;1.93;;;0.83;;
19854;SDS011;10088;47.946;2.532;2023-08-01T05:58:03;2.73;;;0.90;;
19854;SDS011;10088;47.946;2.532;2023-08-01T06:00:28;2.20;;;0.80;;
19854;SDS011;10088;47.946;2.532;2023-08-01T06:02:55;1.87;;;0.80;;
19854;SDS011;10088;47.946;2.532;2023-08-01T06:05:20;0.90;;;0.80;;
19854;SDS011;10088;47.946;2.532;2023-08-01T06:07:46;0.87;;;0.73;;
19854;SDS011;10088;47.946;2.532;2023-08-01T06:10:11;1.23;;;0.80;;
19854;SDS011;10088;47.946;2.532;2023-08-01T06:12:36;0.90;;;0.80;;
19854;SDS011;10088;47.946;2.532;2023-08-01T06:15:02;1.27;;;0.70;;
19854;SDS011;10088;47.946;2.532;2023-08-01T06:17:27;4.10;;;1.20;;
19854;SDS011;10088;47.946;2.532;2023-08-01T06:19:52;0.97;;;0.80;;
19854;SDS011;10088;47.946;2.532;2023-08-01T06:22:19;1.00;;;0.77;;
19854;SDS011;10088;47.946;2.532;2023-08-01T06:24:45;3.27;;;1.00;;
19854;SDS011;10088;47.946;2.532;2023-08-01T06:27:10;2.67;;;0.93;;
19854;SDS011;10088;47.946;2.532;2023-08-01T06:29:35;2.47;;;0.90;;
19854;SDS011;10088;47.946;2.532;2023-08-01T06:32:02;1.70;;;1.20;;
19854;SDS011;10088;47.946;2.532;2023-08-01T06:34:27;1.37;;;0.80;;
19854;SDS011;10088;47.946;2.532;2023-08-01T06:36:52;1.47;;;1.10;;
19854;SDS011;10088;47.946;2.532;2023-08-01T06:39:18;1.87;;;1.10;;
19854;SDS011;10088;47.946;2.532;2023-08-01T06:41:43;2.27;;;0.97;;
19854;SDS011;10088;47.946;2.532;2023-08-01T06:44:08;2.30;;;1.10;;
19854;SDS011;10088;47.946;2.532;2023-08-01T06:46:34;3.90;;;1.20;;
19854;SDS011;10088;47.946;2.532;2023-08-01T06:48:59;3.70;;;1.30;;
19854;SDS011;10088;47.946;2.532;2023-08-01T06:51:24;2.87;;;1.20;;
19854;SDS011;10088;47.946;2.532;2023-08-01T06:53:49;9.00;;;1.17;;
19854;SDS011;10088;47.946;2.532;2023-08-01T06:56:15;1.70;;;0.97;;
19854;SDS011;10088;47.946;2.532;2023-08-01T06:58:40;2.27;;;0.97;;
19854;SDS011;10088;47.946;2.532;2023-08-01T07:01:05;3.60;;;1.37;;
19854;SDS011;10088;47.946;2.532;2023-08-01T07:03:30;2.67;;;1.50;;
19854;SDS011;10088;47.946;2.532;2023-08-01T07:05:56;4.27;;;1.57;;
19854;SDS011;10088;47.946;2.532;2023-08-01T07:08:21;1.77;;;1.23;;
19854;SDS011;10088;47.946;2.532;2023-08-01T07:10:46;5.77;;;1.37;;
19854;SDS011;10088;47.946;2.532;2023-08-01T07:13:12;4.50;;;1.20;;
19854;SDS011;10088;47.946;2.532;2023-08-01T07:15:37;4.60;;;1.57;;
19854;SDS011;10088;47.946;2.532;2023-08-01T07:18:02;2.47;;;1.60;;
19854;SDS011;10088;47.946;2.532;2023-08-01T07:20:28;5.83;;;1.70;;
19854;SDS011;10088;47.946;2.532;2023-08-01T07:22:53;4.67;;;1.63;;
19854;SDS011;10088;47.946;2.532;2023-08-01T07:25:18;4.70;;;1.93;;
19854;SDS011;10088;47.946;2.532;2023-08-01T07:27:44;5.37;;;1.77;;
19854;SDS011;10088;47.946;2.532;2023-08-01T07:30:09;3.10;;;1.60;;
19854;SDS011;10088;47.946;2.532;2023-08-01T07:32:35;5.50;;;1.70;;
19854;SDS011;10088;47.946;2.532;2023-08-01T07:35:02;4.07;;;1.70;;
19854;SDS011;10088;47.946;2.532;2023-08-01T07:37:27;4.33;;;1.67;;
19854;SDS011;10088;47.946;2.532;2023-08-01T07:39:54;4.33;;;1.60;;
19854;SDS011;10088;47.946;2.532;2023-08-01T07:42:19;5.20;;;1.77;;
19854;SDS011;10088;47.946;2.532;2023-08-01T07:44:45;3.03;;;1.90;;
19854;SDS011;10088;47.946;2.532;2023-08-01T07:47:10;3.87;;;1.43;;
19854;SDS011;10088;47.946;2.532;2023-08-01T07:49:35;4.63;;;2.00;;
19854;SDS011;10088;47.946;2.532;2023-08-01T07:52:00;3.63;;;1.67;;
19854;SDS011;10088;47.946;2.532;2023-08-01T07:54:26;4.90;;;1.60;;
19854;SDS011;10088;47.946;2.532;2023-08-01T07:56:51;4.37;;;1.50;;
19854;SDS011;10088;47.946;2.532;2023-08-01T07:59:16;3.70;;;1.50;;
19854;SDS011;10088;47.946;2.532;2023-08-01T08:01:41;3.93;;;1.50;;
19854;SDS011;10088;47.946;2.532;2023-08-01T08:04:07;3.47;;;1.73;;
19854;SDS011;10088;47.946;2.532;2023-08-01T08:06:32;4.90;;;1.83;;
19854;SDS011;10088;47.946;2.532;2023-08-01T08:08:57;3.17;;;1.60;;
19854;SDS011;10088;47.946;2.532;2023-08-01T08:11:23;6.73;;;1.60;;
19854;SDS011;10088;47.946;2.532;2023-08-01T08:13:48;5.00;;;1.70;;
19854;SDS011;10088;47.946;2.532;2023-08-01T08:16:13;3.40;;;1.50;;
19854;SDS011;10088;47.946;2.532;2023-08-01T08:18:39;4.93;;;1.77;;
19854;SDS011;10088;47.946;2.532;2023-08-01T08:21:04;3.50;;;1.57;;
19854;SDS011;10088;47.946;2.532;2023-08-01T08:23:29;4.77;;;1.87;;
19854;SDS011;10088;47.946;2.532;2023-08-01T08:25:55;4.47;;;1.77;;
19854;SDS011;10088;47.946;2.532;2023-08-01T08:28:29;6.63;;;1.90;;
19854;SDS011;10088;47.946;2.532;2023-08-01T08:30:56;5.30;;;1.80;;
19854;SDS011;10088;47.946;2.532;2023-08-01T08:33:21;3.17;;;1.70;;
19854;SDS011;10088;47.946;2.532;2023-08-01T08:35:46;4.77;;;1.90;;
19854;SDS011;10088;47.946;2.532;2023-08-01T08:38:12;7.90;;;2.13;;
19854;SDS011;10088;47.946;2.532;2023-08-01T08:40:37;6.37;;;1.83;;
19854;SDS011;10088;47.946;2.532;2023-08-01T08:43:05;5.00;;;1.80;;
19854;SDS011;10088;47.946;2.532;2023-08-01T08:45:34;7.47;;;1.77;;
19854;SDS011;10088;47.946;2.532;2023-08-01T08:48:00;3.50;;;1.77;;
19854;SDS011;10088;47.946;2.532;2023-08-01T08:50:26;6.00;;;1.67;;
19854;SDS011;10088;47.946;2.532;2023-08-01T08:52:52;4.07;;;1.70;;
19854;SDS011;10088;47.946;2.532;2023-08-01T08:55:17;5.63;;;2.00;;
19854;SDS011;10088;47.946;2.532;2023-08-01T08:57:46;3.63;;;1.63;;
19854;SDS011;10088;47.946;2.532;2023-08-01T09:00:15;5.87;;;2.37;;
19854;SDS011;10088;47.946;2.532;2023-08-01T09:02:41;4.13;;;1.60;;
19854;SDS011;10088;47.946;2.532;2023-08-01T09:05:06;8.23;;;2.57;;
19854;SDS011;10088;47.946;2.532;2023-08-01T09:07:32;5.97;;;1.87;;
19854;SDS011;10088;47.946;2.532;2023-08-01T09:09:58;2.70;;;1.50;;
19854;SDS011;10088;47.946;2.532;2023-08-01T09:12:23;3.50;;;1.40;;
19854;SDS011;10088;47.946;2.532;2023-08-01T09:14:50;3.57;;;1.63;;
19854;SDS011;10088;47.946;2.532;2023-08-01T09:17:16;3.83;;;1.60;;
19854;SDS011;10088;47.946;2.532;2023-08-01T09:19:43;5.40;;;1.77;;
19854;SDS011;10088;47.946;2.532;2023-08-01T09:22:12;6.60;;;2.20;;
19854;SDS011;10088;47.946;2.532;2023-08-01T09:24:38;6.33;;;1.93;;
19854;SDS011;10088;47.946;2.532;2023-08-01T09:27:03;4.87;;;1.60;;
19854;SDS011;10088;47.946;2.532;2023-08-01T09:29:30;5.73;;;2.00;;
19854;SDS011;10088;47.946;2.532;2023-08-01T09:31:56;3.30;;;1.50;;
19854;SDS011;10088;47.946;2.532;2023-08-01T09:34:23;3.67;;;2.10;;
19854;SDS011;10088;47.946;2.532;2023-08-01T09:36:48;3.43;;;1.70;;
19854;SDS011;10088;47.946;2.532;2023-08-01T09:39:20;3.00;;;1.70;;
19854;SDS011;10088;47.946;2.532;2023-08-01T09:42:07;5.60;;;1.80;;
19854;SDS011;10088;47.946;2.532;2023-08-01T09:44:33;4.10;;;1.50;;
19854;SDS011;10088;47.946;2.532;2023-08-01T09:47:01;3.57;;;1.40;;
19854;SDS011;10088;47.946;2.532;2023-08-01T09:49:30;5.43;;;1.70;;
19854;SDS011;10088;47.946;2.532;2023-08-01T09:51:55;3.53;;;1.37;;
19854;SDS011;10088;47.946;2.532;2023-08-01T09:54:21;4.30;;;1.60;;
19854;SDS011;10088;47.946;2.532;2023-08-01T09:56:47;2.83;;;1.40;;
19854;SDS011;10088;47.946;2.532;2023-08-01T09:59:14;7.10;;;1.70;;
19854;SDS011;10088;47.946;2.532;2023-08-01T10:01:42;2.97;;;1.57;;
19854;SDS011;10088;47.946;2.532;2023-08-01T10:04:09;4.07;;;1.60;;
19854;SDS011;10088;47.946;2.532;2023-08-01T10:06:36;5.57;;;1.50;;
19854;SDS011;10088;47.946;2.532;2023-08-01T10:09:02;3.10;;;1.47;;
19854;SDS011;10088;47.946;2.532;2023-08-01T10:11:27;3.57;;;1.80;;
19854;SDS011;10088;47.946;2.532;2023-08-01T10:13:55;4.10;;;1.53;;
19854;SDS011;10088;47.946;2.532;2023-08-01T10:16:21;3.13;;;1.80;;
19854;SDS011;10088;47.946;2.532;2023-08-01T10:18:46;4.30;;;1.60;;
19854;SDS011;10088;47.946;2.532;2023-08-01T10:21:13;6.07;;;2.17;;
19854;SDS011;10088;47.946;2.532;2023-08-01T10:23:39;5.50;;;1.60;;
19854;SDS011;10088;47.946;2.532;2023-08-01T10:26:05;3.90;;;1.73;;
19854;SDS011;10088;47.946;2.532;2023-08-01T10:28:36;4.33;;;1.57;;
19854;SDS011;10088;47.946;2.532;2023-08-01T10:33:36;5.83;;;2.03;;
19854;SDS011;10088;47.946;2.532;2023-08-01T10:36:11;3.10;;;1.57;;
19854;SDS011;10088;47.946;2.532;2023-08-01T10:38:43;5.83;;;1.83;;
19854;SDS011;10088;47.946;2.532;2023-08-01T10:41:17;3.50;;;1.90;;
19854;SDS011;10088;47.946;2.532;2023-08-01T10:43:42;4.80;;;1.93;;
19854;SDS011;10088;47.946;2.532;2023-08-01T10:46:08;5.47;;;1.73;;
19854;SDS011;10088;47.946;2.532;2023-08-01T10:48:33;4.30;;;1.33;;
19854;SDS011;10088;47.946;2.532;2023-08-01T10:50:58;6.50;;;2.10;;
19854;SDS011;10088;47.946;2.532;2023-08-01T10:53:24;3.83;;;1.47;;
19854;SDS011;10088;47.946;2.532;2023-08-01T10:55:49;5.87;;;1.70;;
19854;SDS011;10088;47.946;2.532;2023-08-01T10:58:15;5.43;;;1.70;;
19854;SDS011;10088;47.946;2.532;2023-08-01T11:00:41;4.03;;;1.53;;
19854;SDS011;10088;47.946;2.532;2023-08-01T11:03:07;3.90;;;1.60;;
19854;SDS011;10088;47.946;2.532;2023-08-01T11:05:32;4.30;;;1.60;;
19854;SDS011;10088;47.946;2.532;2023-08-01T11:07:58;4.13;;;1.70;;
19854;SDS011;10088;47.946;2.532;2023-08-01T11:10:28;6.57;;;1.90;;
19854;SDS011;10088;47.946;2.532;2023-08-01T11:12:53;5.03;;;2.00;;
19854;SDS011;10088;47.946;2.532;2023-08-01T11:15:19;5.47;;;2.10;;
19854;SDS011;10088;47.946;2.532;2023-08-01T11:17:51;3.17;;;1.70;;
19854;SDS011;10088;47.946;2.532;2023-08-01T11:20:18;5.27;;;1.57;;
19854;SDS011;10088;47.946;2.532;2023-08-01T11:25:15;3.37;;;1.90;;
19854;SDS011;10088;47.946;2.532;2023-08-01T11:27:40;3.40;;;1.70;;
19854;SDS011;10088;47.946;2.532;2023-08-01T11:30:05;4.90;;;1.73;;
19854;SDS011;10088;47.946;2.532;2023-08-01T11:32:35;4.37;;;1.97;;
19854;SDS011;10088;47.946;2.532;2023-08-01T11:35:00;4.93;;;2.20;;
19854;SDS011;10088;47.946;2.532;2023-08-01T11:37:26;5.77;;;2.20;;
19854;SDS011;10088;47.946;2.532;2023-08-01T11:39:52;4.03;;;1.70;;
19854;SDS011;10088;47.946;2.532;2023-08-01T11:42:17;5.47;;;1.63;;
19854;SDS011;10088;47.946;2.532;2023-08-01T11:44:45;5.87;;;2.00;;
19854;SDS011;10088;47.946;2.532;2023-08-01T11:47:12;4.17;;;1.80;;
19854;SDS011;10088;47.946;2.532;2023-08-01T11:49:37;3.40;;;1.60;;
19854;SDS011;10088;47.946;2.532;2023-08-01T11:52:03;7.20;;;2.00;;
19854;SDS011;10088;47.946;2.532;2023-08-01T11:54:28;3.33;;;1.30;;
19854;SDS011;10088;47.946;2.532;2023-08-01T11:56:59;2.90;;;1.43;;
19854;SDS011;10088;47.946;2.532;2023-08-01T11:59:25;5.47;;;1.43;;
19854;SDS011;10088;47.946;2.532;2023-08-01T12:01:50;3.17;;;1.60;;
19854;SDS011;10088;47.946;2.532;2023-08-01T12:04:25;2.73;;;1.50;;
19854;SDS011;10088;47.946;2.532;2023-08-01T12:06:51;4.03;;;1.53;;
19854;SDS011;10088;47.946;2.532;2023-08-01T12:09:16;2.80;;;1.47;;
19854;SDS011;10088;47.946;2.532;2023-08-01T12:11:41;3.60;;;1.80;;
19854;SDS011;10088;47.946;2.532;2023-08-01T12:14:13;2.70;;;1.47;;
19854;SDS011;10088;47.946;2.532;2023-08-01T12:16:40;4.07;;;1.50;;
19854;SDS011;10088;47.946;2.532;2023-08-01T12:19:05;4.17;;;1.77;;
19854;SDS011;10088;47.946;2.532;2023-08-01T12:21:32;3.93;;;1.50;;
19854;SDS011;10088;47.946;2.532;2023-08-01T12:23:57;6.03;;;1.80;;
19854;SDS011;10088;47.946;2.532;2023-08-01T12:26:23;2.13;;;1.40;;
19854;SDS011;10088;47.946;2.532;2023-08-01T12:28:48;4.67;;;1.77;;
19854;SDS011;10088;47.946;2.532;2023-08-01T12:31:20;3.50;;;1.70;;
19854;SDS011;10088;47.946;2.532;2023-08-01T12:33:46;3.03;;;1.50;;
19854;SDS011;10088;47.946;2.532;2023-08-01T12:36:15;5.47;;;1.97;;
19854;SDS011;10088;47.946;2.532;2023-08-01T12:38:40;3.90;;;1.80;;
19854;SDS011;10088;47.946;2.532;2023-08-01T12:41:06;4.40;;;2.00;;
19854;SDS011;10088;47.946;2.532;2023-08-01T12:43:31;3.20;;;1.70;;
19854;SDS011;10088;47.946;2.532;2023-08-01T12:45:56;3.93;;;1.70;;
19854;SDS011;10088;47.946;2.532;2023-08-01T12:48:23;6.07;;;1.63;;
19854;SDS011;10088;47.946;2.532;2023-08-01T12:50:48;4.10;;;2.03;;
19854;SDS011;10088;47.946;2.532;2023-08-01T12:53:14;9.33;;;2.10;;
19854;SDS011;10088;47.946;2.532;2023-08-01T12:55:42;3.73;;;1.83;;
19854;SDS011;10088;47.946;2.532;2023-08-01T12:58:07;3.47;;;1.77;;
19854;SDS011;10088;47.946;2.532;2023-08-01T13:00:33;2.70;;;1.67;;
19854;SDS011;10088;47.946;2.532;2023-08-01T13:02:58;4.80;;;1.80;;
19854;SDS011;10088;47.946;2.532;2023-08-01T13:05:23;3.50;;;1.83;;
19854;SDS011;10088;47.946;2.532;2023-08-01T13:07:49;8.37;;;2.10;;
19854;SDS011;10088;47.946;2.532;2023-08-01T13:10:15;5.73;;;2.03;;
19854;SDS011;10088;47.946;2.532;2023-08-01T13:12:40;4.47;;;1.97;;
19854;SDS011;10088;47.946;2.532;2023-08-01T13:15:05;4.90;;;2.43;;
19854;SDS011;10088;47.946;2.532;2023-08-01T13:17:30;5.57;;;1.73;;
19854;SDS011;10088;47.946;2.532;2023-08-01T13:19:56;6.40;;;2.20;;
19854;SDS011;10088;47.946;2.532;2023-08-01T13:22:21;3.97;;;1.73;;
19854;SDS011;10088;47.946;2.532;2023-08-01T13:24:46;3.80;;;1.90;;
19854;SDS011;10088;47.946;2.532;2023-08-01T13:27:12;4.93;;;2.00;;
19854;SDS011;10088;47.946;2.532;2023-08-01T13:29:37;4.57;;;1.83;;
19854;SDS011;10088;47.946;2.532;2023-08-01T13:32:05;3.67;;;1.90;;
19854;SDS011;10088;47.946;2.532;2023-08-01T13:34:30;5.87;;;2.47;;
19854;SDS011;10088;47.946;2.532;2023-08-01T13:36:55;6.33;;;2.30;;
19854;SDS011;10088;47.946;2.532;2023-08-01T13:39:21;4.87;;;2.53;;
19854;SDS011;10088;47.946;2.532;2023-08-01T13:41:47;5.77;;;3.07;;
19854;SDS011;10088;47.946;2.532;2023-08-01T13:44:12;8.33;;;3.00;;
19854;SDS011;10088;47.946;2.532;2023-08-01T13:46:37;5.07;;;3.37;;
19854;SDS011;10088;47.946;2.532;2023-08-01T13:49:02;7.43;;;3.50;;
19854;SDS011;10088;47.946;2.532;2023-08-01T13:51:28;4.23;;;2.83;;
19854;SDS011;10088;47.946;2.532;2023-08-01T13:53:56;5.00;;;2.60;;
19854;SDS011;10088;47.946;2.532;2023-08-01T13:56:23;5.10;;;2.07;;
19854;SDS011;10088;47.946;2.532;2023-08-01T13:58:50;4.67;;;2.30;;
19854;SDS011;10088;47.946;2.532;2023-08-01T14:01:15;4.87;;;2.50;;
19854;SDS011;10088;47.946;2.532;2023-08-01T14:03:40;6.53;;;2.77;;
19854;SDS011;10088;47.946;2.532;2023-08-01T14:06:09;4.37;;;2.30;;
19854;SDS011;10088;47.946;2.532;2023-08-01T14:08:35;4.47;;;2.13;;
19854;SDS011;10088;47.946;2.532;2023-08-01T14:11:04;5.77;;;2.20;;
19854;SDS011;10088;47.946;2.532;2023-08-01T14:13:29;3.90;;;2.10;;
19854;SDS011;10088;47.946;2.532;2023-08-01T14:15:55;2.60;;;1.83;;
19854;SDS011;10088;47.946;2.532;2023-08-01T14:18:20;3.83;;;2.10;;
19854;SDS011;10088;47.946;2.532;2023-08-01T14:20:45;3.60;;;2.07;;
19854;SDS011;10088;47.946;2.532;2023-08-01T14:23:11;2.93;;;1.80;;
19854;SDS011;10088;47.946;2.532;2023-08-01T14:25:36;2.83;;;1.70;;
19854;SDS011;10088;47.946;2.532;2023-08-01T14:28:01;3.90;;;1.70;;
19854;SDS011;10088;47.946;2.532;2023-08-01T14:30:27;4.00;;;2.20;;
19854;SDS011;10088;47.946;2.532;2023-08-01T14:32:58;2.63;;;1.50;;
19854;SDS011;10088;47.946;2.532;2023-08-01T14:35:23;2.33;;;1.80;;
19854;SDS011;10088;47.946;2.532;2023-08-01T14:37:49;3.13;;;1.80;;
19854;SDS011;10088;47.946;2.532;2023-08-01T14:40:14;3.90;;;1.70;;
19854;SDS011;10088;47.946;2.532;2023-08-01T14:42:39;3.23;;;1.30;;
19854;SDS011;10088;47.946;2.532;2023-08-01T14:45:05;4.53;;;1.70;;